Time;durP1;ratioP1;P1;durP2;ratioP2;P2;SDS_P1;SDS_P2;PMS_P1;PMS_P2;Temp;Humidity;BMP_temperature;BMP_pressure;BME280_temperature;BME280_humidity;BME280_pressure;Samples;Min_cycle;Max_cycle;Signal;HPM_P1;HPM_P2
2022/08/21 00:02:18;;;;;;;3.30;3.00;;;21.80;58.50;;;;;;5060109;28;20668;-70
2022/08/21 00:04:44;;;;;;;4.77;3.00;;;21.70;58.40;;;;;;5079470;28;20228;-70
2022/08/21 00:07:10;;;;;;;5.10;2.90;;;21.60;58.50;;;;;;5062741;28;20453;-70
2022/08/21 00:09:36;;;;;;;5.30;3.07;;;21.60;58.60;;;;;;5064683;28;20449;-70
2022/08/21 00:12:02;;;;;;;4.20;2.80;;;21.50;58.60;;;;;;5070330;28;20841;-70
2022/08/21 00:14:28;;;;;;;5.83;3.00;;;21.40;58.80;;;;;;5061932;28;20736;-70
2022/08/21 00:16:53;;;;;;;4.30;3.37;;;21.30;58.90;;;;;;5074737;28;20454;-69
2022/08/21 00:19:19;;;;;;;5.73;3.23;;;21.30;58.90;;;;;;5076796;28;20230;-70
2022/08/21 00:21:45;;;;;;;5.90;3.27;;;21.30;59.00;;;;;;5075875;28;20225;-70
2022/08/21 00:24:12;;;;;;;3.60;2.80;;;21.30;59.00;;;;;;5078527;28;20227;-69
2022/08/21 00:26:37;;;;;;;3.57;2.60;;;21.30;59.00;;;;;;5094731;28;20227;-69
2022/08/21 00:29:04;;;;;;;4.20;3.00;;;21.30;58.90;;;;;;5071931;28;20452;-70
2022/08/21 00:31:29;;;;;;;4.73;3.23;;;21.30;59.00;;;;;;5084863;28;20473;-68
2022/08/21 00:33:55;;;;;;;7.60;3.10;;;21.20;59.20;;;;;;5060977;28;20227;-70
2022/08/21 00:36:21;;;;;;;5.60;2.93;;;21.10;59.20;;;;;;5060453;28;20716;-70
2022/08/21 00:38:46;;;;;;;2.70;2.50;;;21.10;59.20;;;;;;5077712;28;20218;-69
2022/08/21 00:41:12;;;;;;;3.77;3.37;;;21.10;59.20;;;;;;5067107;27;20225;-70
2022/08/21 00:43:39;;;;;;;6.07;3.23;;;21.10;59.30;;;;;;5061192;28;20231;-69
2022/08/21 00:46:05;;;;;;;7.23;3.90;;;20.90;59.30;;;;;;5062006;28;20678;-69
2022/08/21 00:48:32;;;;;;;3.67;3.10;;;20.80;59.40;;;;;;5045177;28;20579;-69
2022/08/21 00:51:01;;;;;;;4.17;3.53;;;20.70;59.60;;;;;;5059974;28;20448;-69
2022/08/21 00:53:28;;;;;;;5.50;3.10;;;20.60;59.70;;;;;;5068336;28;20512;-69
2022/08/21 00:55:55;;;;;;;5.37;3.20;;;20.50;59.70;;;;;;5059779;28;20496;-70
2022/08/21 00:58:22;;;;;;;5.00;3.13;;;20.40;59.90;;;;;;5057630;28;20514;-69
2022/08/21 01:00:49;;;;;;;7.73;4.13;;;20.30;59.90;;;;;;5059419;28;20514;-70
2022/08/21 01:03:19;;;;;;;3.33;2.80;;;20.30;60.40;;;;;;5064519;28;20462;-70
2022/08/21 01:05:45;;;;;;;7.13;2.83;;;20.20;60.70;;;;;;5079846;28;20971;-69
2022/08/21 01:08:12;;;;;;;7.93;3.60;;;20.20;60.80;;;;;;5043340;28;20457;-71
2022/08/21 01:10:38;;;;;;;10.10;3.37;;;20.20;60.70;;;;;;5070922;28;20449;-69
2022/08/21 01:13:07;;;;;;;9.10;3.10;;;20.20;60.50;;;;;;5059858;28;21019;-70
2022/08/21 01:15:36;;;;;;;3.13;2.60;;;20.30;60.40;;;;;;5066195;28;20219;-70
2022/08/21 01:18:07;;;;;;;3.13;2.20;;;20.40;60.40;;;;;;5068073;28;20490;-70
2022/08/21 01:20:34;;;;;;;2.50;2.30;;;20.40;60.20;;;;;;5056674;28;20441;-68
2022/08/21 01:23:02;;;;;;;3.10;2.80;;;20.40;59.90;;;;;;5048550;28;20454;-70
2022/08/21 01:25:28;;;;;;;4.43;3.03;;;20.40;60.10;;;;;;5054613;28;20454;-69
2022/08/21 01:27:54;;;;;;;4.13;3.23;;;20.40;59.90;;;;;;5042734;28;20447;-69
2022/08/21 01:30:24;;;;;;;7.93;3.20;;;20.40;59.90;;;;;;5066600;28;20453;-69
2022/08/21 01:32:51;;;;;;;4.77;3.17;;;20.40;59.80;;;;;;5064047;28;20453;-68
2022/08/21 01:35:19;;;;;;;4.30;3.00;;;20.40;60.10;;;;;;5044485;28;20457;-70
2022/08/21 01:37:45;;;;;;;5.17;2.80;;;20.40;60.00;;;;;;5068111;28;20453;-70
2022/08/21 01:40:14;;;;;;;3.33;2.83;;;20.40;59.90;;;;;;5068540;28;20449;-70
2022/08/21 01:42:39;;;;;;;5.33;3.20;;;20.40;59.90;;;;;;5076847;28;20469;-70
2022/08/21 01:45:07;;;;;;;9.60;3.43;;;20.40;59.90;;;;;;5067412;28;20875;-70
2022/08/21 01:47:33;;;;;;;3.60;2.83;;;20.40;59.80;;;;;;5059083;28;20748;-69
2022/08/21 01:49:59;;;;;;;3.53;2.63;;;20.40;59.80;;;;;;5067536;28;20450;-70
2022/08/21 01:52:25;;;;;;;5.80;3.00;;;20.40;59.80;;;;;;5062794;28;20223;-70
2022/08/21 01:54:51;;;;;;;3.27;2.97;;;20.40;59.80;;;;;;5071995;28;20710;-70
2022/08/21 01:57:17;;;;;;;3.77;2.60;;;20.40;59.80;;;;;;5068821;28;20478;-69
2022/08/21 01:59:43;;;;;;;6.30;2.73;;;20.40;59.70;;;;;;5067612;28;20233;-69
2022/08/21 02:02:08;;;;;;;4.20;2.63;;;20.30;59.70;;;;;;5075084;28;20247;-70
2022/08/21 02:04:34;;;;;;;4.27;2.60;;;20.20;59.70;;;;;;5070711;28;20239;-69
2022/08/21 02:07:01;;;;;;;5.37;3.20;;;20.20;59.80;;;;;;5071310;28;20740;-70
2022/08/21 02:09:27;;;;;;;6.40;3.73;;;20.00;59.70;;;;;;5060364;28;20238;-69
2022/08/21 02:11:53;;;;;;;4.13;2.87;;;19.80;59.80;;;;;;5066835;28;20458;-69
2022/08/21 02:14:19;;;;;;;3.80;2.63;;;19.60;60.40;;;;;;5052691;28;20302;-67
2022/08/21 02:16:46;;;;;;;3.87;2.80;;;19.40;60.80;;;;;;5071804;28;21043;-69
2022/08/21 02:19:13;;;;;;;4.50;2.87;;;19.30;61.10;;;;;;5071514;28;20215;-70
2022/08/21 02:21:39;;;;;;;4.33;2.50;;;19.20;61.20;;;;;;5073301;28;20453;-69
2022/08/21 02:24:06;;;;;;;5.13;3.37;;;19.20;61.70;;;;;;5070783;28;20468;-69
2022/08/21 02:26:32;;;;;;;5.10;2.50;;;19.20;61.60;;;;;;5068028;28;20227;-70
2022/08/21 02:28:58;;;;;;;4.47;2.80;;;19.30;61.40;;;;;;5057765;28;20461;-68
2022/08/21 02:31:24;;;;;;;3.93;2.93;;;19.40;61.20;;;;;;5051559;28;20507;-70
2022/08/21 02:33:50;;;;;;;3.77;3.37;;;19.40;61.30;;;;;;5059330;28;20544;-69
2022/08/21 02:36:16;;;;;;;4.10;2.87;;;19.50;61.30;;;;;;5074686;28;20679;-69
2022/08/21 02:38:43;;;;;;;7.33;3.17;;;19.50;61.40;;;;;;5075408;28;20237;-70
2022/08/21 02:41:15;;;;;;;3.70;2.87;;;19.40;61.40;;;;;;5074508;28;20215;-69
2022/08/21 02:43:41;;;;;;;4.50;2.53;;;19.40;61.30;;;;;;5043527;28;20462;-68
2022/08/21 02:46:11;;;;;;;3.43;2.53;;;19.40;61.00;;;;;;5059488;28;20450;-70
2022/08/21 02:48:38;;;;;;;2.60;2.37;;;19.50;61.10;;;;;;5055160;28;20957;-70
2022/08/21 02:51:12;;;;;;;3.63;2.40;;;19.50;61.10;;;;;;5071198;28;20540;-69
2022/08/21 02:53:40;;;;;;;4.70;2.67;;;19.60;61.10;;;;;;5066314;28;20468;-70
2022/08/21 02:56:08;;;;;;;7.10;3.50;;;19.60;60.90;;;;;;5071021;28;20461;-70
2022/08/21 02:58:38;;;;;;;4.00;2.53;;;19.50;60.90;;;;;;5070685;28;20477;-70
2022/08/21 03:01:08;;;;;;;4.00;3.17;;;19.50;60.90;;;;;;5067771;28;20466;-69
2022/08/21 03:03:35;;;;;;;2.97;2.67;;;19.50;60.90;;;;;;5066781;28;20446;-70
2022/08/21 03:06:00;;;;;;;3.47;3.00;;;19.60;61.10;;;;;;5063834;28;20465;-69
2022/08/21 03:08:26;;;;;;;3.80;2.63;;;19.60;61.00;;;;;;5069620;28;20640;-69
2022/08/21 03:10:53;;;;;;;3.87;2.47;;;19.60;60.90;;;;;;5062745;28;20221;-69
2022/08/21 03:13:20;;;;;;;8.20;2.63;;;19.60;61.00;;;;;;5065995;28;20220;-68
2022/08/21 03:15:47;;;;;;;6.20;2.80;;;19.50;60.70;;;;;;5064076;28;20454;-69
2022/08/21 03:18:13;;;;;;;4.87;3.53;;;19.40;61.50;;;;;;5066600;28;20861;-68
2022/08/21 03:20:41;;;;;;;3.40;3.00;;;19.10;62.00;;;;;;5070371;28;20469;-69
2022/08/21 03:23:08;;;;;;;7.23;3.70;;;18.90;62.60;;;;;;5046597;28;20995;-68
2022/08/21 03:25:34;;;;;;;5.67;3.70;;;18.90;62.90;;;;;;5049799;28;20529;-69
2022/08/21 03:28:01;;;;;;;3.63;2.80;;;18.90;62.70;;;;;;5085202;28;20449;-69
2022/08/21 03:30:27;;;;;;;8.97;2.90;;;19.00;62.40;;;;;;5069929;28;20454;-69
2022/08/21 03:32:54;;;;;;;3.60;2.53;;;19.10;62.40;;;;;;5070789;28;20540;-69
2022/08/21 03:35:20;;;;;;;5.17;3.10;;;19.10;62.30;;;;;;5059599;28;20960;-69
2022/08/21 03:37:46;;;;;;;5.17;3.57;;;19.10;62.10;;;;;;5046726;28;20494;-69
2022/08/21 03:40:15;;;;;;;5.57;3.60;;;19.10;62.10;;;;;;5064514;28;20474;-70
2022/08/21 03:42:40;;;;;;;7.13;3.50;;;19.20;62.30;;;;;;5068799;28;20450;-69
2022/08/21 03:45:07;;;;;;;5.90;4.10;;;19.10;62.40;;;;;;5069616;28;20958;-69
2022/08/21 03:47:33;;;;;;;3.40;2.70;;;18.80;62.90;;;;;;5069240;28;20215;-69
2022/08/21 03:49:59;;;;;;;3.43;2.90;;;18.60;63.60;;;;;;5052682;28;20466;-69
2022/08/21 03:52:25;;;;;;;3.90;2.83;;;18.30;65.20;;;;;;5045963;28;20248;-68
2022/08/21 03:54:50;;;;;;;5.87;3.13;;;18.20;64.90;;;;;;5068862;28;20493;-70
2022/08/21 03:57:17;;;;;;;3.70;3.40;;;18.10;65.00;;;;;;5068703;28;20215;-69
2022/08/21 03:59:43;;;;;;;3.63;2.93;;;18.00;65.50;;;;;;5042595;28;20219;-69
2022/08/21 04:02:10;;;;;;;4.13;3.27;;;17.90;66.20;;;;;;5068915;28;20462;-69
2022/08/21 04:04:36;;;;;;;4.10;3.03;;;17.90;66.40;;;;;;5068596;28;20733;-68
2022/08/21 04:07:03;;;;;;;4.40;2.73;;;17.90;66.40;;;;;;5069619;28;20472;-69
2022/08/21 04:09:29;;;;;;;2.90;2.60;;;18.00;66.40;;;;;;5068109;28;20468;-68
2022/08/21 04:11:56;;;;;;;5.87;3.50;;;18.00;66.00;;;;;;5061239;28;20457;-69
2022/08/21 04:14:22;;;;;;;5.20;2.70;;;18.10;65.80;;;;;;5063690;28;20461;-68
2022/08/21 04:16:48;;;;;;;3.13;2.83;;;18.20;66.60;;;;;;5068896;28;20457;-69
2022/08/21 04:19:14;;;;;;;7.07;3.80;;;18.30;65.50;;;;;;5068446;28;20238;-71
2022/08/21 04:21:40;;;;;;;4.87;3.63;;;18.30;65.50;;;;;;5071132;28;20497;-69
2022/08/21 04:24:08;;;;;;;5.00;3.47;;;18.40;65.60;;;;;;5068854;28;20726;-69
2022/08/21 04:26:34;;;;;;;6.27;3.53;;;18.30;66.10;;;;;;5069223;28;20987;-69
2022/08/21 04:29:01;;;;;;;5.10;3.73;;;18.20;66.20;;;;;;5066395;28;20462;-68
2022/08/21 04:31:28;;;;;;;11.13;3.60;;;18.20;66.70;;;;;;5068257;28;21008;-69
2022/08/21 04:33:54;;;;;;;5.03;3.70;;;18.10;66.90;;;;;;5068905;28;20472;-68
2022/08/21 04:36:20;;;;;;;3.90;3.20;;;18.00;67.30;;;;;;5066549;28;20504;-68
2022/08/21 04:38:46;;;;;;;6.37;5.10;;;18.00;67.40;;;;;;5067328;28;20461;-69
2022/08/21 04:41:12;;;;;;;3.60;3.20;;;18.00;67.30;;;;;;5052002;28;20690;-68
2022/08/21 04:43:38;;;;;;;7.03;3.57;;;17.90;67.80;;;;;;5066964;28;20227;-69
2022/08/21 04:46:05;;;;;;;5.20;4.70;;;17.80;68.30;;;;;;5069118;28;20458;-69
2022/08/21 04:48:32;;;;;;;4.87;3.30;;;17.80;68.80;;;;;;5059973;28;20459;-69
2022/08/21 04:51:17;;;;;;;3.30;3.03;;;17.80;68.40;;;;;;5043613;28;20442;-69
2022/08/21 04:54:03;;;;;;;4.20;3.33;;;17.90;67.70;;;;;;5068462;28;20480;-68
2022/08/21 04:56:35;;;;;;;5.53;3.20;;;18.00;67.70;;;;;;5051019;28;20492;-68
2022/08/21 04:59:06;;;;;;;3.10;2.80;;;18.10;67.70;;;;;;5068982;28;20452;-69
2022/08/21 05:01:37;;;;;;;4.60;3.23;;;18.10;67.50;;;;;;5059634;28;20504;-68
2022/08/21 05:04:05;;;;;;;5.30;3.60;;;18.10;68.00;;;;;;5067605;28;20465;-69
2022/08/21 05:06:35;;;;;;;8.20;3.57;;;18.00;68.20;;;;;;5055978;28;20492;-69
2022/08/21 05:09:01;;;;;;;3.70;3.33;;;18.00;68.40;;;;;;5061907;28;20524;-69
2022/08/21 05:11:30;;;;;;;5.00;3.60;;;17.90;69.40;;;;;;5067316;28;20458;-70
2022/08/21 05:13:55;;;;;;;6.90;3.40;;;17.80;70.40;;;;;;5060265;28;20976;-69
2022/08/21 05:16:21;;;;;;;3.57;2.93;;;17.60;71.10;;;;;;5068075;28;20514;-69
2022/08/21 05:18:47;;;;;;;5.37;3.50;;;17.60;70.80;;;;;;5063177;28;20587;-69
2022/08/21 05:21:12;;;;;;;3.80;3.50;;;17.70;70.70;;;;;;5046619;28;20281;-69
2022/08/21 05:23:38;;;;;;;5.23;3.43;;;17.80;70.50;;;;;;5068696;28;20219;-68
2022/08/21 05:26:04;;;;;;;3.50;2.77;;;17.90;70.20;;;;;;5070585;28;20223;-69
2022/08/21 05:28:31;;;;;;;4.80;3.07;;;17.90;70.20;;;;;;5077789;28;20215;-68
2022/08/21 05:30:57;;;;;;;5.97;3.40;;;17.90;70.30;;;;;;5085973;28;20330;-68
2022/08/21 05:33:23;;;;;;;9.93;3.70;;;17.90;70.50;;;;;;5056685;28;20838;-69
2022/08/21 05:35:55;;;;;;;3.70;3.30;;;17.90;70.80;;;;;;5072917;28;20215;-68
2022/08/21 05:38:21;;;;;;;4.60;3.90;;;17.90;71.20;;;;;;5066090;28;20462;-68
2022/08/21 05:40:48;;;;;;;4.17;3.40;;;17.90;71.30;;;;;;5071721;28;20464;-68
2022/08/21 05:43:14;;;;;;;4.20;3.27;;;17.90;70.90;;;;;;5071775;28;20473;-68
2022/08/21 05:45:40;;;;;;;5.50;3.80;;;18.00;71.70;;;;;;5073077;28;20453;-69
2022/08/21 05:48:07;;;;;;;4.27;3.20;;;18.00;71.80;;;;;;5071254;28;20492;-70
2022/08/21 05:50:34;;;;;;;3.40;2.87;;;18.00;71.40;;;;;;5071534;28;20449;-69
2022/08/21 05:53:00;;;;;;;4.23;3.27;;;18.10;71.30;;;;;;5072546;28;20532;-68
2022/08/21 05:55:26;;;;;;;5.93;3.17;;;18.10;71.20;;;;;;5071850;28;20462;-70
2022/08/21 05:57:52;;;;;;;6.57;3.23;;;18.20;71.60;;;;;;5074570;28;20465;-68
2022/08/21 06:00:18;;;;;;;6.10;3.40;;;18.20;71.70;;;;;;5073121;28;20301;-68
2022/08/21 06:02:44;;;;;;;4.20;2.93;;;18.20;71.80;;;;;;5071659;28;21027;-68
2022/08/21 06:05:09;;;;;;;4.97;3.30;;;18.30;71.20;;;;;;5057610;28;20212;-70
2022/08/21 06:07:35;;;;;;;3.77;3.10;;;18.30;71.80;;;;;;5070393;28;20686;-69
2022/08/21 06:10:01;;;;;;;5.80;3.60;;;18.30;73.10;;;;;;5054889;28;20297;-69
2022/08/21 06:12:27;;;;;;;4.73;3.57;;;18.30;72.90;;;;;;5073396;28;20309;-69
2022/08/21 06:14:53;;;;;;;7.23;3.83;;;18.30;72.50;;;;;;5066964;28;20227;-69
2022/08/21 06:17:19;;;;;;;3.70;3.20;;;18.30;73.10;;;;;;5067629;28;20594;-69
2022/08/21 06:19:45;;;;;;;6.60;3.20;;;18.40;72.70;;;;;;5047216;28;20329;-69
2022/08/21 06:22:11;;;;;;;5.17;3.73;;;18.40;72.10;;;;;;5068134;28;20596;-70
2022/08/21 06:24:36;;;;;;;4.27;3.07;;;18.40;72.00;;;;;;5092121;28;20238;-69
2022/08/21 06:27:07;;;;;;;4.30;3.50;;;18.50;72.20;;;;;;5071229;28;20759;-69
2022/08/21 06:29:34;;;;;;;5.37;3.90;;;18.50;72.40;;;;;;5070928;28;20223;-69
2022/08/21 06:32:00;;;;;;;3.30;3.00;;;18.60;72.40;;;;;;5071733;28;20445;-68
2022/08/21 06:34:26;;;;;;;3.90;3.17;;;18.60;72.20;;;;;;5070236;28;20481;-69
2022/08/21 06:36:51;;;;;;;5.90;3.60;;;18.70;73.10;;;;;;5070410;28;20219;-70
2022/08/21 06:39:17;;;;;;;3.37;3.07;;;18.80;73.00;;;;;;5070141;28;21003;-70
2022/08/21 06:41:43;;;;;;;3.80;3.37;;;18.90;73.50;;;;;;5067249;28;20563;-69
2022/08/21 06:44:09;;;;;;;3.90;3.60;;;18.90;73.40;;;;;;5069228;28;20261;-68
2022/08/21 06:46:35;;;;;;;3.63;3.23;;;19.00;73.60;;;;;;5053037;28;20213;-70
2022/08/21 06:49:01;;;;;;;5.57;3.03;;;19.10;73.60;;;;;;5071371;28;20273;-69
2022/08/21 06:51:27;;;;;;;7.07;3.13;;;19.10;73.30;;;;;;5067508;28;20870;-69
2022/08/21 06:53:53;;;;;;;3.80;3.50;;;19.20;73.70;;;;;;5063990;28;20233;-69
2022/08/21 06:56:19;;;;;;;5.03;2.70;;;19.30;73.80;;;;;;5059706;28;20226;-69
2022/08/21 06:58:45;;;;;;;5.33;4.00;;;19.40;73.80;;;;;;5056507;28;21127;-69
2022/08/21 07:01:11;;;;;;;4.40;2.90;;;19.40;73.50;;;;;;5070670;28;21025;-69
2022/08/21 07:03:40;;;;;;;3.60;3.30;;;19.50;73.60;;;;;;5069704;28;20437;-69
2022/08/21 07:06:08;;;;;;;6.63;3.60;;;19.50;73.70;;;;;;5080509;28;20284;-69
2022/08/21 07:08:34;;;;;;;3.40;3.10;;;19.60;73.90;;;;;;5067241;28;20549;-70
2022/08/21 07:11:03;;;;;;;3.90;3.07;;;19.70;73.80;;;;;;5060366;28;20494;-70
2022/08/21 07:13:29;;;;;;;6.40;2.87;;;19.70;74.20;;;;;;5076769;28;20462;-70
2022/08/21 07:15:55;;;;;;;3.97;3.57;;;19.90;74.00;;;;;;5070203;28;20461;-70
2022/08/21 07:18:21;;;;;;;4.00;3.13;;;19.90;74.00;;;;;;5068676;28;20481;-70
2022/08/21 07:20:47;;;;;;;4.37;3.40;;;20.00;74.50;;;;;;5050518;28;20868;-70
2022/08/21 07:23:27;;;;;;;3.83;3.30;;;20.10;74.20;;;;;;5070785;28;20333;-70
2022/08/21 07:25:53;;;;;;;6.97;2.90;;;20.20;74.30;;;;;;5060022;28;20457;-69
2022/08/21 07:28:18;;;;;;;6.73;3.77;;;20.30;74.80;;;;;;5066368;28;20507;-69
2022/08/21 07:30:44;;;;;;;6.17;4.00;;;20.40;75.30;;;;;;5069672;28;20211;-70
2022/08/21 07:33:11;;;;;;;4.03;3.40;;;20.50;75.30;;;;;;5067917;28;20587;-70
2022/08/21 07:35:36;;;;;;;3.70;3.33;;;20.60;75.30;;;;;;5070049;28;20449;-70
2022/08/21 07:38:02;;;;;;;4.13;3.57;;;20.60;75.00;;;;;;5044270;28;20457;-70
2022/08/21 07:40:28;;;;;;;3.70;3.40;;;20.70;75.30;;;;;;5053151;28;20222;-70
2022/08/21 07:42:54;;;;;;;3.80;3.50;;;20.80;75.50;;;;;;5070472;28;20773;-70
2022/08/21 07:45:24;;;;;;;7.70;3.93;;;21.00;76.10;;;;;;5084891;28;20333;-70
2022/08/21 07:47:50;;;;;;;4.10;3.70;;;21.10;75.90;;;;;;5062549;28;20502;-70
2022/08/21 07:50:16;;;;;;;9.60;4.30;;;21.20;75.80;;;;;;5083093;28;20538;-69
2022/08/21 07:52:42;;;;;;;5.10;3.90;;;21.30;76.40;;;;;;5054575;28;20448;-70
2022/08/21 07:55:11;;;;;;;4.80;3.80;;;21.40;76.50;;;;;;5062184;28;20470;-69
2022/08/21 07:57:37;;;;;;;4.33;3.60;;;21.50;76.20;;;;;;5040232;28;20457;-70
2022/08/21 08:00:06;;;;;;;6.03;3.67;;;21.60;76.00;;;;;;5067765;28;20468;-70
2022/08/21 08:02:38;;;;;;;4.37;3.87;;;21.60;75.80;;;;;;5064470;28;20438;-69
2022/08/21 08:05:09;;;;;;;4.57;3.70;;;21.80;76.90;;;;;;5043855;28;20460;-69
2022/08/21 08:07:35;;;;;;;4.53;3.47;;;21.90;76.00;;;;;;5069094;28;20467;-70
2022/08/21 08:10:02;;;;;;;5.03;3.80;;;22.00;76.00;;;;;;5056619;28;20504;-70
2022/08/21 08:12:29;;;;;;;5.10;3.90;;;22.10;76.30;;;;;;5066720;28;20461;-69
2022/08/21 08:15:00;;;;;;;4.27;3.80;;;22.20;75.90;;;;;;5064186;28;20477;-68
2022/08/21 08:17:26;;;;;;;3.70;3.40;;;22.30;75.80;;;;;;5079827;28;20461;-70
2022/08/21 08:19:52;;;;;;;5.60;4.17;;;22.40;75.90;;;;;;5074112;28;20456;-69
2022/08/21 08:22:21;;;;;;;4.60;4.20;;;22.50;76.20;;;;;;5088854;28;20796;-70
2022/08/21 08:24:48;;;;;;;4.00;3.70;;;22.60;76.20;;;;;;5069409;28;20287;-70
2022/08/21 08:27:14;;;;;;;4.10;3.70;;;22.80;76.20;;;;;;5068526;28;20469;-70
2022/08/21 08:29:40;;;;;;;5.00;4.30;;;23.00;76.00;;;;;;5064424;28;20461;-69
2022/08/21 08:32:09;;;;;;;4.83;4.40;;;23.10;75.40;;;;;;5063485;28;20468;-69
2022/08/21 08:34:36;;;;;;;4.47;3.70;;;23.20;75.10;;;;;;5061484;28;20310;-70
2022/08/21 08:37:03;;;;;;;5.40;4.50;;;23.30;74.40;;;;;;5068529;28;20452;-70
2022/08/21 08:39:29;;;;;;;5.37;4.23;;;23.40;74.40;;;;;;5065873;28;20516;-70
2022/08/21 08:42:22;;;;;;;4.77;4.30;;;23.50;74.10;;;;;;5065788;28;20449;-70
2022/08/21 08:44:52;;;;;;;3.97;3.57;;;23.70;73.70;;;;;;5072018;28;20522;-70
2022/08/21 08:47:19;;;;;;;4.80;4.10;;;23.90;72.80;;;;;;5071348;28;20482;-69
2022/08/21 08:50:04;;;;;;;7.13;4.33;;;23.90;72.60;;;;;;5074818;28;20817;-70
2022/08/21 08:52:33;;;;;;;4.53;3.80;;;23.90;71.40;;;;;;5076516;28;20461;-70
2022/08/21 08:55:20;;;;;;;4.33;3.93;;;24.00;72.10;;;;;;5076179;28;20476;-69
2022/08/21 08:57:49;;;;;;;7.50;4.50;;;24.10;71.60;;;;;;5088616;28;20447;-70
2022/08/21 09:00:20;;;;;;;5.07;3.77;;;24.10;71.50;;;;;;5079423;28;20444;-69
2022/08/21 09:02:46;;;;;;;6.27;3.83;;;24.10;70.50;;;;;;5077115;28;20444;-69
2022/08/21 09:05:28;;;;;;;4.30;3.57;;;24.20;70.60;;;;;;5075424;28;20460;-70
2022/08/21 09:07:57;;;;;;;5.50;4.43;;;24.30;70.40;;;;;;5065397;28;20488;-70
2022/08/21 09:10:58;;;;;;;5.73;3.70;;;24.40;69.70;;;;;;5079918;27;20506;-70
2022/08/21 09:14:02;;;;;;;6.00;4.13;;;24.50;69.50;;;;;;5047586;28;20461;-70
2022/08/21 09:16:54;;;;;;;4.73;4.33;;;24.50;69.40;;;;;;4975871;28;20514;-69
2022/08/21 09:19:49;;;;;;;5.43;3.80;;;24.60;69.00;;;;;;5083388;28;20457;-69
2022/08/21 09:22:33;;;;;;;4.43;4.03;;;24.60;68.40;;;;;;5027926;28;20484;-70
2022/08/21 09:25:11;;;;;;;5.37;4.37;;;24.60;68.40;;;;;;5067732;28;20457;-69
2022/08/21 09:27:37;;;;;;;7.50;4.00;;;24.60;67.90;;;;;;5066377;28;20452;-70
2022/08/21 09:30:05;;;;;;;5.33;4.00;;;24.80;67.70;;;;;;5060520;28;20461;-70
2022/08/21 09:32:33;;;;;;;6.03;3.77;;;24.80;67.60;;;;;;5066371;28;20542;-70
2022/08/21 09:35:20;;;;;;;6.27;3.87;;;24.90;67.30;;;;;;5060221;28;20596;-69
2022/08/21 09:37:53;;;;;;;4.87;3.70;;;24.80;66.80;;;;;;5050840;28;20953;-69
2022/08/21 09:40:43;;;;;;;5.03;4.43;;;24.90;66.90;;;;;;5066690;28;20495;-70
2022/08/21 09:43:09;;;;;;;5.60;4.40;;;24.90;66.50;;;;;;5043113;28;20980;-68
2022/08/21 09:45:35;;;;;;;7.63;4.70;;;25.00;66.30;;;;;;5065083;28;20460;-70
2022/08/21 09:48:12;;;;;;;4.33;3.83;;;25.10;66.30;;;;;;5067346;28;20263;-68
2022/08/21 09:50:39;;;;;;;3.77;3.40;;;25.20;66.50;;;;;;5067090;28;20566;-70
2022/08/21 09:53:28;;;;;;;4.63;3.60;;;25.20;66.40;;;;;;5066487;28;20506;-70
2022/08/21 09:58:51;;;;;;;7.13;3.60;;;25.30;63.70;;;;;;5067534;28;20446;-70
2022/08/21 10:01:23;;;;;;;5.17;3.77;;;25.30;64.60;;;;;;5070696;28;20906;-70
2022/08/21 10:04:01;;;;;;;5.10;3.93;;;25.30;63.70;;;;;;5067181;28;20450;-70
2022/08/21 10:06:28;;;;;;;6.00;3.60;;;25.40;62.90;;;;;;5067409;28;20459;-69
2022/08/21 10:09:09;;;;;;;6.50;4.17;;;25.30;61.70;;;;;;5074033;28;20484;-70
2022/08/21 10:11:36;;;;;;;7.07;4.37;;;25.20;62.60;;;;;;5069138;28;20441;-69
2022/08/21 10:14:07;;;;;;;5.73;3.60;;;25.40;63.20;;;;;;5068710;28;20484;-69
2022/08/21 10:17:05;;;;;;;6.87;4.33;;;25.50;61.40;;;;;;5064225;28;20454;-70
2022/08/21 10:19:30;;;;;;;4.67;3.60;;;25.40;61.70;;;;;;5078757;28;20461;-70
2022/08/21 10:22:27;;;;;;;6.53;3.80;;;25.50;62.30;;;;;;5076264;28;20544;-70
2022/08/21 10:25:00;;;;;;;4.90;3.70;;;25.60;62.40;;;;;;5068643;28;20226;-70
2022/08/21 10:27:50;;;;;;;4.67;3.50;;;25.80;62.30;;;;;;5070117;28;20463;-70
2022/08/21 10:30:54;;;;;;;5.47;3.57;;;25.90;62.20;;;;;;5069224;28;20464;-70
2022/08/21 10:33:41;;;;;;;4.57;3.60;;;25.90;61.60;;;;;;5041979;28;20506;-69
2022/08/21 10:36:36;;;;;;;8.93;3.40;;;26.00;61.20;;;;;;5071174;28;21021;-70
2022/08/21 10:39:20;;;;;;;3.87;3.53;;;26.10;60.90;;;;;;5060727;28;20460;-70
2022/08/21 10:42:37;;;;;;;4.40;4.00;;;26.20;60.70;;;;;;5058082;28;20459;-70
2022/08/21 10:45:08;;;;;;;5.70;3.50;;;26.30;60.60;;;;;;5024478;28;20454;-70
2022/08/21 10:47:42;;;;;;;6.43;3.10;;;26.30;60.60;;;;;;5055186;28;20464;-70
2022/08/21 10:50:44;;;;;;;5.43;3.70;;;26.50;60.20;;;;;;5056078;28;20466;-70
2022/08/21 10:53:22;;;;;;;3.70;3.27;;;26.60;59.90;;;;;;5066833;28;20447;-70
2022/08/21 10:56:14;;;;;;;3.93;3.63;;;26.60;59.80;;;;;;5059228;28;20546;-70
2022/08/21 10:59:09;;;;;;;4.10;3.27;;;26.80;59.80;;;;;;5045627;28;20429;-69
2022/08/21 11:02:13;;;;;;;3.27;3.00;;;27.00;59.60;;;;;;5050470;28;20449;-70
2022/08/21 11:05:00;;;;;;;4.73;4.20;;;27.00;58.80;;;;;;5069523;28;20441;-69
2022/08/21 11:07:39;;;;;;;4.80;3.50;;;27.00;58.10;;;;;;5067617;28;20485;-70
2022/08/21 11:10:30;;;;;;;4.23;3.40;;;27.00;58.90;;;;;;5076731;28;20464;-70
2022/08/21 11:13:07;;;;;;;3.23;2.90;;;27.10;58.80;;;;;;5063754;28;21040;-70
2022/08/21 11:16:15;;;;;;;4.37;3.97;;;27.20;58.80;;;;;;5057785;28;20806;-70
2022/08/21 11:18:50;;;;;;;3.90;3.50;;;27.40;58.70;;;;;;5054054;28;20220;-70
2022/08/21 11:21:34;;;;;;;4.45;3.22;;;27.50;59.00;;;;;;5066542;28;20456;-70
2022/08/21 11:24:21;;;;;;;5.80;4.17;;;27.60;58.90;;;;;;5068933;28;20235;-70
2022/08/21 11:27:04;;;;;;;3.80;3.43;;;27.80;58.60;;;;;;5063979;28;20221;-70
2022/08/21 11:29:38;;;;;;;3.43;3.13;;;27.60;58.00;;;;;;5065335;28;20453;-70
2022/08/21 11:32:22;;;;;;;4.83;3.47;;;27.60;57.80;;;;;;5066136;28;20272;-70
2022/08/21 11:35:07;;;;;;;4.37;3.97;;;27.60;57.80;;;;;;5057110;28;20231;-70
2022/08/21 11:37:54;;;;;;;6.10;3.77;;;27.50;57.30;;;;;;5067936;28;20232;-70
2022/08/21 11:40:46;;;;;;;5.70;3.40;;;27.50;57.30;;;;;;5086163;28;20466;-70
2022/08/21 11:43:38;;;;;;;3.90;3.60;;;27.60;57.70;;;;;;5068946;28;20844;-70
2022/08/21 11:46:23;;;;;;;4.90;3.47;;;27.70;57.40;;;;;;5044337;28;20518;-70
2022/08/21 11:49:11;;;;;;;3.43;3.13;;;27.90;57.90;;;;;;5057182;28;20517;-70
2022/08/21 11:51:59;;;;;;;3.17;2.88;;;28.10;57.70;;;;;;5058192;28;20229;-70
2022/08/21 11:54:28;;;;;;;4.27;3.77;;;28.20;57.00;;;;;;5064900;28;20315;-69
2022/08/21 11:57:12;;;;;;;4.20;2.92;;;28.10;56.90;;;;;;5067407;28;20247;-70
2022/08/21 11:59:44;;;;;;;3.70;3.00;;;28.10;57.60;;;;;;5052141;28;20220;-70
2022/08/21 12:02:14;;;;;;;6.35;3.30;;;28.40;57.30;;;;;;5085706;28;20232;-70
2022/08/21 12:04:51;;;;;;;3.40;3.10;;;28.90;56.50;;;;;;5058898;28;20257;-70
2022/08/21 12:07:29;;;;;;;3.90;3.00;;;29.10;56.70;;;;;;5055933;28;20325;-70
2022/08/21 12:09:57;;;;;;;3.83;3.40;;;29.10;56.10;;;;;;5055379;28;20235;-70
2022/08/21 12:12:26;;;;;;;4.25;3.40;;;29.20;56.70;;;;;;5066045;28;20221;-70
2022/08/21 12:15:19;;;;;;;3.67;3.28;;;29.30;56.40;;;;;;5065974;28;20231;-70
2022/08/21 12:17:59;;;;;;;6.10;5.05;;;29.30;55.90;;;;;;5045517;28;20226;-70
2022/08/21 12:21:03;;;;;;;3.85;3.15;;;29.20;55.20;;;;;;5066492;28;20292;-70
2022/08/21 12:23:33;;;;;;;3.85;3.10;;;29.20;55.90;;;;;;5067499;28;20231;-70
2022/08/21 12:26:10;;;;;;;5.65;3.40;;;29.20;56.00;;;;;;5065734;28;20223;-70
2022/08/21 12:28:36;;;;;;;3.50;3.20;;;29.50;55.40;;;;;;5067313;28;20244;-71
2022/08/21 12:31:02;;;;;;;4.07;3.30;;;29.80;55.10;;;;;;5066492;28;20238;-70
2022/08/21 12:33:32;;;;;;;3.05;2.85;;;30.20;53.40;;;;;;5070036;28;20224;-70
2022/08/21 12:36:20;;;;;;;5.60;3.35;;;30.40;53.90;;;;;;5067359;28;20229;-70
2022/08/21 12:39:10;;;;;;;4.13;3.55;;;30.50;54.00;;;;;;5073337;28;20646;-70
2022/08/21 12:41:56;;;;;;;11.18;3.67;;;30.60;53.80;;;;;;5068123;28;20606;-69
2022/08/21 12:44:37;;;;;;;3.88;3.40;;;30.80;52.90;;;;;;5060000;28;20215;-70
2022/08/21 12:47:06;;;;;;;3.53;3.15;;;30.80;53.00;;;;;;5050674;28;20219;-70
2022/08/21 12:49:42;;;;;;;5.40;3.70;;;30.80;53.40;;;;;;5073742;28;20271;-70
2022/08/21 12:52:20;;;;;;;7.25;3.35;;;30.70;53.40;;;;;;5065138;28;20218;-70
2022/08/21 12:54:46;;;;;;;3.40;2.97;;;30.50;53.40;;;;;;5045997;28;20235;-70
2022/08/21 12:57:24;;;;;;;6.95;3.10;;;30.40;53.50;;;;;;5069793;28;20228;-69
2022/08/21 12:59:58;;;;;;;3.38;3.10;;;30.40;53.60;;;;;;5055240;28;20614;-70
2022/08/21 13:02:34;;;;;;;3.17;2.88;;;30.50;53.80;;;;;;5072356;28;20228;-70
2022/08/21 13:05:05;;;;;;;3.10;2.80;;;30.60;53.30;;;;;;5065214;28;20225;-70
2022/08/21 13:07:34;;;;;;;4.63;3.28;;;30.30;52.50;;;;;;5069648;27;20223;-69
2022/08/21 13:10:05;;;;;;;4.18;2.72;;;30.10;52.70;;;;;;5088461;27;20249;-70